sensor_id;sensor_type;location;lat;lon;timestamp;P1;durP1;ratioP1;P2;durP2;ratioP2
74632;SDS011;63139;52.018;8.552;2023-03-26T00:02:04;7.03;;;3.30;;
74632;SDS011;63139;52.018;8.552;2023-03-26T00:04:33;11.55;;;3.88;;
74632;SDS011;63139;52.018;8.552;2023-03-26T00:07:01;14.50;;;3.70;;
74632;SDS011;63139;52.018;8.552;2023-03-26T00:09:29;10.52;;;3.47;;
74632;SDS011;63139;52.018;8.552;2023-03-26T00:11:59;11.10;;;3.50;;
74632;SDS011;63139;52.018;8.552;2023-03-26T00:14:28;12.93;;;3.67;;
74632;SDS011;63139;52.018;8.552;2023-03-26T00:17:00;11.35;;;4.20;;
74632;SDS011;63139;52.018;8.552;2023-03-26T00:19:29;8.23;;;3.30;;
74632;SDS011;63139;52.018;8.552;2023-03-26T00:21:57;14.73;;;4.35;;
74632;SDS011;63139;52.018;8.552;2023-03-26T00:24:25;8.00;;;3.33;;
74632;SDS011;63139;52.018;8.552;2023-03-26T00:26:55;13.52;;;4.07;;
74632;SDS011;63139;52.018;8.552;2023-03-26T00:29:22;13.18;;;3.75;;
74632;SDS011;63139;52.018;8.552;2023-03-26T00:31:54;10.48;;;3.60;;
74632;SDS011;63139;52.018;8.552;2023-03-26T00:34:23;20.20;;;4.40;;
74632;SDS011;63139;52.018;8.552;2023-03-26T00:36:52;12.48;;;3.50;;
74632;SDS011;63139;52.018;8.552;2023-03-26T00:39:20;13.95;;;4.30;;
74632;SDS011;63139;52.018;8.552;2023-03-26T00:41:49;19.83;;;4.32;;
74632;SDS011;63139;52.018;8.552;2023-03-26T00:44:20;18.58;;;4.63;;
74632;SDS011;63139;52.018;8.552;2023-03-26T00:46:48;18.88;;;4.68;;
74632;SDS011;63139;52.018;8.552;2023-03-26T00:49:17;20.58;;;5.32;;
74632;SDS011;63139;52.018;8.552;2023-03-26T00:51:45;17.10;;;4.72;;
74632;SDS011;63139;52.018;8.552;2023-03-26T00:54:13;15.63;;;4.32;;
74632;SDS011;63139;52.018;8.552;2023-03-26T00:56:41;13.43;;;5.50;;
74632;SDS011;63139;52.018;8.552;2023-03-26T00:59:12;15.68;;;5.07;;
74632;SDS011;63139;52.018;8.552;2023-03-26T01:01:40;20.00;;;6.40;;
74632;SDS011;63139;52.018;8.552;2023-03-26T01:04:20;12.77;;;5.30;;
74632;SDS011;63139;52.018;8.552;2023-03-26T01:06:54;17.23;;;6.22;;
74632;SDS011;63139;52.018;8.552;2023-03-26T01:09:25;15.68;;;5.78;;
74632;SDS011;63139;52.018;8.552;2023-03-26T01:11:58;19.27;;;6.55;;
74632;SDS011;63139;52.018;8.552;2023-03-26T01:14:28;13.65;;;5.60;;
74632;SDS011;63139;52.018;8.552;2023-03-26T01:16:57;11.35;;;5.60;;
74632;SDS011;63139;52.018;8.552;2023-03-26T01:19:29;9.60;;;5.15;;
74632;SDS011;63139;52.018;8.552;2023-03-26T01:22:07;11.63;;;4.68;;
74632;SDS011;63139;52.018;8.552;2023-03-26T01:24:41;16.67;;;5.43;;
74632;SDS011;63139;52.018;8.552;2023-03-26T01:27:19;13.52;;;5.45;;
74632;SDS011;63139;52.018;8.552;2023-03-26T01:29:54;16.05;;;6.40;;
74632;SDS011;63139;52.018;8.552;2023-03-26T01:32:33;14.02;;;5.50;;
74632;SDS011;63139;52.018;8.552;2023-03-26T01:35:16;12.77;;;5.43;;
74632;SDS011;63139;52.018;8.552;2023-03-26T01:37:56;13.48;;;4.40;;
74632;SDS011;63139;52.018;8.552;2023-03-26T01:40:38;13.68;;;5.05;;
74632;SDS011;63139;52.018;8.552;2023-03-26T01:43:10;14.65;;;4.97;;
74632;SDS011;63139;52.018;8.552;2023-03-26T01:45:44;13.15;;;5.50;;
74632;SDS011;63139;52.018;8.552;2023-03-26T01:48:16;15.30;;;5.25;;
74632;SDS011;63139;52.018;8.552;2023-03-26T01:50:44;8.60;;;4.78;;
74632;SDS011;63139;52.018;8.552;2023-03-26T01:53:13;11.95;;;5.05;;
74632;SDS011;63139;52.018;8.552;2023-03-26T01:55:47;15.88;;;5.60;;
74632;SDS011;63139;52.018;8.552;2023-03-26T01:58:26;13.88;;;4.78;;
74632;SDS011;63139;52.018;8.552;2023-03-26T02:01:01;17.70;;;6.15;;
74632;SDS011;63139;52.018;8.552;2023-03-26T02:03:42;14.65;;;5.28;;
74632;SDS011;63139;52.018;8.552;2023-03-26T02:06:17;15.82;;;6.38;;
74632;SDS011;63139;52.018;8.552;2023-03-26T02:08:51;12.40;;;6.28;;
74632;SDS011;63139;52.018;8.552;2023-03-26T02:11:24;11.32;;;5.30;;
74632;SDS011;63139;52.018;8.552;2023-03-26T02:14:02;13.77;;;5.35;;
74632;SDS011;63139;52.018;8.552;2023-03-26T02:16:30;13.85;;;5.15;;
74632;SDS011;63139;52.018;8.552;2023-03-26T02:18:59;12.18;;;5.00;;
74632;SDS011;63139;52.018;8.552;2023-03-26T02:21:29;10.05;;;5.75;;
74632;SDS011;63139;52.018;8.552;2023-03-26T02:24:00;12.15;;;5.82;;
74632;SDS011;63139;52.018;8.552;2023-03-26T02:26:36;11.55;;;4.97;;
74632;SDS011;63139;52.018;8.552;2023-03-26T02:29:10;12.00;;;5.75;;
74632;SDS011;63139;52.018;8.552;2023-03-26T02:31:41;9.25;;;4.78;;
74632;SDS011;63139;52.018;8.552;2023-03-26T02:34:09;7.80;;;4.63;;
74632;SDS011;63139;52.018;8.552;2023-03-26T02:36:43;11.75;;;5.53;;
74632;SDS011;63139;52.018;8.552;2023-03-26T02:39:11;11.25;;;5.63;;
74632;SDS011;63139;52.018;8.552;2023-03-26T02:41:47;8.95;;;4.32;;
74632;SDS011;63139;52.018;8.552;2023-03-26T02:44:15;8.85;;;5.05;;
74632;SDS011;63139;52.018;8.552;2023-03-26T02:46:57;6.55;;;4.70;;
74632;SDS011;63139;52.018;8.552;2023-03-26T02:49:34;10.43;;;4.97;;
74632;SDS011;63139;52.018;8.552;2023-03-26T02:52:02;8.27;;;4.78;;
74632;SDS011;63139;52.018;8.552;2023-03-26T02:54:33;6.65;;;4.53;;
74632;SDS011;63139;52.018;8.552;2023-03-26T02:57:14;10.10;;;4.03;;
74632;SDS011;63139;52.018;8.552;2023-03-26T03:00:00;6.20;;;3.38;;
74632;SDS011;63139;52.018;8.552;2023-03-26T03:02:54;9.18;;;4.35;;
74632;SDS011;63139;52.018;8.552;2023-03-26T03:05:29;9.82;;;4.53;;
74632;SDS011;63139;52.018;8.552;2023-03-26T03:08:16;11.63;;;4.65;;
74632;SDS011;63139;52.018;8.552;2023-03-26T03:11:06;8.82;;;4.78;;
74632;SDS011;63139;52.018;8.552;2023-03-26T03:13:41;12.02;;;4.22;;
74632;SDS011;63139;52.018;8.552;2023-03-26T03:16:11;9.18;;;3.97;;
74632;SDS011;63139;52.018;8.552;2023-03-26T03:18:39;12.13;;;4.68;;
74632;SDS011;63139;52.018;8.552;2023-03-26T03:21:07;12.90;;;4.75;;
74632;SDS011;63139;52.018;8.552;2023-03-26T03:23:35;14.52;;;5.68;;
74632;SDS011;63139;52.018;8.552;2023-03-26T03:26:11;11.60;;;4.40;;
74632;SDS011;63139;52.018;8.552;2023-03-26T03:28:46;12.23;;;5.25;;
74632;SDS011;63139;52.018;8.552;2023-03-26T03:31:15;15.75;;;5.20;;
74632;SDS011;63139;52.018;8.552;2023-03-26T03:33:44;12.05;;;4.65;;
74632;SDS011;63139;52.018;8.552;2023-03-26T03:36:14;12.38;;;4.70;;
74632;SDS011;63139;52.018;8.552;2023-03-26T03:38:46;14.05;;;5.13;;
74632;SDS011;63139;52.018;8.552;2023-03-26T03:41:18;15.07;;;5.47;;
74632;SDS011;63139;52.018;8.552;2023-03-26T03:43:47;14.43;;;5.10;;
74632;SDS011;63139;52.018;8.552;2023-03-26T03:46:23;16.85;;;6.28;;
74632;SDS011;63139;52.018;8.552;2023-03-26T03:48:52;17.90;;;6.22;;
74632;SDS011;63139;52.018;8.552;2023-03-26T03:51:31;13.52;;;5.95;;
74632;SDS011;63139;52.018;8.552;2023-03-26T03:54:03;13.35;;;6.20;;
74632;SDS011;63139;52.018;8.552;2023-03-26T03:56:51;19.80;;;7.30;;
74632;SDS011;63139;52.018;8.552;2023-03-26T03:59:26;15.93;;;6.13;;
74632;SDS011;63139;52.018;8.552;2023-03-26T04:01:54;18.17;;;6.88;;
74632;SDS011;63139;52.018;8.552;2023-03-26T04:04:31;17.75;;;7.75;;
74632;SDS011;63139;52.018;8.552;2023-03-26T04:07:02;26.55;;;7.65;;
74632;SDS011;63139;52.018;8.552;2023-03-26T04:09:54;15.00;;;5.75;;
74632;SDS011;63139;52.018;8.552;2023-03-26T04:12:24;18.63;;;7.97;;
74632;SDS011;63139;52.018;8.552;2023-03-26T04:15:01;14.60;;;7.27;;
74632;SDS011;63139;52.018;8.552;2023-03-26T04:17:31;25.33;;;8.38;;
74632;SDS011;63139;52.018;8.552;2023-03-26T04:19:59;24.65;;;9.25;;
74632;SDS011;63139;52.018;8.552;2023-03-26T04:22:35;13.15;;;7.72;;
74632;SDS011;63139;52.018;8.552;2023-03-26T04:25:08;18.95;;;8.23;;
74632;SDS011;63139;52.018;8.552;2023-03-26T04:27:36;26.40;;;10.02;;
74632;SDS011;63139;52.018;8.552;2023-03-26T04:30:22;24.13;;;10.05;;
74632;SDS011;63139;52.018;8.552;2023-03-26T04:32:57;22.75;;;8.82;;
74632;SDS011;63139;52.018;8.552;2023-03-26T04:35:31;24.33;;;10.05;;
74632;SDS011;63139;52.018;8.552;2023-03-26T04:38:02;26.52;;;9.63;;
74632;SDS011;63139;52.018;8.552;2023-03-26T04:40:36;37.65;;;12.27;;
74632;SDS011;63139;52.018;8.552;2023-03-26T04:43:39;22.08;;;10.32;;
74632;SDS011;63139;52.018;8.552;2023-03-26T04:46:22;20.08;;;9.32;;
74632;SDS011;63139;52.018;8.552;2023-03-26T04:49:00;26.60;;;10.05;;
74632;SDS011;63139;52.018;8.552;2023-03-26T04:51:31;29.55;;;12.15;;
74632;SDS011;63139;52.018;8.552;2023-03-26T04:54:13;23.63;;;10.25;;
74632;SDS011;63139;52.018;8.552;2023-03-26T04:56:56;23.90;;;10.38;;
74632;SDS011;63139;52.018;8.552;2023-03-26T04:59:38;33.15;;;13.50;;
74632;SDS011;63139;52.018;8.552;2023-03-26T05:02:13;31.60;;;13.18;;
74632;SDS011;63139;52.018;8.552;2023-03-26T05:04:52;34.70;;;12.98;;
74632;SDS011;63139;52.018;8.552;2023-03-26T05:07:21;27.48;;;11.38;;
74632;SDS011;63139;52.018;8.552;2023-03-26T05:09:54;25.98;;;11.77;;
74632;SDS011;63139;52.018;8.552;2023-03-26T05:12:38;31.83;;;11.38;;
74632;SDS011;63139;52.018;8.552;2023-03-26T05:15:11;26.80;;;11.90;;
74632;SDS011;63139;52.018;8.552;2023-03-26T05:18:04;32.33;;;13.02;;
74632;SDS011;63139;52.018;8.552;2023-03-26T05:20:40;28.98;;;11.93;;
74632;SDS011;63139;52.018;8.552;2023-03-26T05:23:09;23.90;;;10.75;;
74632;SDS011;63139;52.018;8.552;2023-03-26T05:25:43;35.58;;;13.20;;
74632;SDS011;63139;52.018;8.552;2023-03-26T05:28:15;32.80;;;11.82;;
74632;SDS011;63139;52.018;8.552;2023-03-26T05:31:09;29.75;;;11.25;;
74632;SDS011;63139;52.018;8.552;2023-03-26T05:33:43;26.70;;;10.35;;
74632;SDS011;63139;52.018;8.552;2023-03-26T05:36:12;36.83;;;10.52;;
74632;SDS011;63139;52.018;8.552;2023-03-26T05:38:45;25.40;;;9.68;;
74632;SDS011;63139;52.018;8.552;2023-03-26T05:41:41;28.27;;;9.55;;
74632;SDS011;63139;52.018;8.552;2023-03-26T05:44:09;29.45;;;10.50;;
74632;SDS011;63139;52.018;8.552;2023-03-26T05:46:43;25.60;;;8.85;;
74632;SDS011;63139;52.018;8.552;2023-03-26T05:49:20;27.00;;;9.53;;
74632;SDS011;63139;52.018;8.552;2023-03-26T05:51:48;26.42;;;8.70;;
74632;SDS011;63139;52.018;8.552;2023-03-26T05:54:51;27.27;;;9.55;;
74632;SDS011;63139;52.018;8.552;2023-03-26T05:57:42;19.13;;;7.32;;
74632;SDS011;63139;52.018;8.552;2023-03-26T06:00:28;24.92;;;6.72;;
74632;SDS011;63139;52.018;8.552;2023-03-26T06:02:57;23.05;;;7.97;;
74632;SDS011;63139;52.018;8.552;2023-03-26T06:05:28;24.95;;;7.65;;
74632;SDS011;63139;52.018;8.552;2023-03-26T06:08:11;21.05;;;6.32;;
74632;SDS011;63139;52.018;8.552;2023-03-26T06:10:47;22.15;;;6.25;;
74632;SDS011;63139;52.018;8.552;2023-03-26T06:13:16;25.02;;;7.65;;
74632;SDS011;63139;52.018;8.552;2023-03-26T06:15:46;25.60;;;6.32;;
74632;SDS011;63139;52.018;8.552;2023-03-26T06:18:25;29.45;;;7.13;;
74632;SDS011;63139;52.018;8.552;2023-03-26T06:21:15;25.38;;;6.50;;
74632;SDS011;63139;52.018;8.552;2023-03-26T06:23:48;26.35;;;6.78;;
74632;SDS011;63139;52.018;8.552;2023-03-26T06:26:38;31.23;;;6.45;;
74632;SDS011;63139;52.018;8.552;2023-03-26T06:29:18;23.55;;;5.97;;
74632;SDS011;63139;52.018;8.552;2023-03-26T06:31:59;18.08;;;4.90;;
74632;SDS011;63139;52.018;8.552;2023-03-26T06:34:48;20.98;;;6.15;;
74632;SDS011;63139;52.018;8.552;2023-03-26T06:37:18;22.58;;;6.00;;
74632;SDS011;63139;52.018;8.552;2023-03-26T06:39:48;22.10;;;5.72;;
74632;SDS011;63139;52.018;8.552;2023-03-26T06:42:18;25.85;;;5.72;;
74632;SDS011;63139;52.018;8.552;2023-03-26T06:45:37;21.08;;;5.47;;
74632;SDS011;63139;52.018;8.552;2023-03-26T06:48:24;27.48;;;5.95;;
74632;SDS011;63139;52.018;8.552;2023-03-26T06:51:14;26.17;;;5.75;;
74632;SDS011;63139;52.018;8.552;2023-03-26T06:54:12;20.85;;;5.45;;
74632;SDS011;63139;52.018;8.552;2023-03-26T06:56:50;32.72;;;6.88;;
74632;SDS011;63139;52.018;8.552;2023-03-26T06:59:30;19.38;;;4.72;;
74632;SDS011;63139;52.018;8.552;2023-03-26T07:02:16;18.55;;;5.30;;
74632;SDS011;63139;52.018;8.552;2023-03-26T07:07:49;18.17;;;5.07;;
74632;SDS011;63139;52.018;8.552;2023-03-26T07:10:39;24.35;;;5.75;;
74632;SDS011;63139;52.018;8.552;2023-03-26T07:13:25;26.08;;;6.85;;
74632;SDS011;63139;52.018;8.552;2023-03-26T07:16:22;19.00;;;6.10;;
74632;SDS011;63139;52.018;8.552;2023-03-26T07:19:07;22.85;;;5.50;;
74632;SDS011;63139;52.018;8.552;2023-03-26T07:21:38;21.08;;;6.20;;
74632;SDS011;63139;52.018;8.552;2023-03-26T07:24:22;25.88;;;7.60;;
74632;SDS011;63139;52.018;8.552;2023-03-26T07:27:09;26.80;;;6.88;;
74632;SDS011;63139;52.018;8.552;2023-03-26T07:29:44;18.40;;;6.35;;
74632;SDS011;63139;52.018;8.552;2023-03-26T07:32:30;15.70;;;6.18;;
74632;SDS011;63139;52.018;8.552;2023-03-26T07:35:29;23.25;;;6.97;;
74632;SDS011;63139;52.018;8.552;2023-03-26T07:38:21;22.63;;;6.97;;
74632;SDS011;63139;52.018;8.552;2023-03-26T07:44:24;22.33;;;6.30;;
74632;SDS011;63139;52.018;8.552;2023-03-26T07:47:30;22.67;;;6.72;;
74632;SDS011;63139;52.018;8.552;2023-03-26T07:50:22;19.52;;;6.55;;
74632;SDS011;63139;52.018;8.552;2023-03-26T07:53:21;20.10;;;7.03;;
74632;SDS011;63139;52.018;8.552;2023-03-26T07:56:05;14.77;;;5.70;;
74632;SDS011;63139;52.018;8.552;2023-03-26T07:58:53;26.13;;;7.07;;
74632;SDS011;63139;52.018;8.552;2023-03-26T08:02:16;21.83;;;6.47;;
74632;SDS011;63139;52.018;8.552;2023-03-26T08:05:12;18.08;;;5.80;;
74632;SDS011;63139;52.018;8.552;2023-03-26T08:08:07;15.80;;;6.05;;
74632;SDS011;63139;52.018;8.552;2023-03-26T08:11:09;17.27;;;6.53;;
74632;SDS011;63139;52.018;8.552;2023-03-26T08:13:53;24.98;;;7.65;;
74632;SDS011;63139;52.018;8.552;2023-03-26T08:16:33;15.27;;;5.55;;
74632;SDS011;63139;52.018;8.552;2023-03-26T08:19:20;20.63;;;6.15;;
74632;SDS011;63139;52.018;8.552;2023-03-26T08:22:01;17.35;;;5.88;;
74632;SDS011;63139;52.018;8.552;2023-03-26T08:24:39;20.65;;;6.40;;
74632;SDS011;63139;52.018;8.552;2023-03-26T08:27:18;22.77;;;7.35;;
74632;SDS011;63139;52.018;8.552;2023-03-26T08:29:53;17.13;;;6.45;;
74632;SDS011;63139;52.018;8.552;2023-03-26T08:32:28;22.98;;;7.18;;
74632;SDS011;63139;52.018;8.552;2023-03-26T08:34:58;18.90;;;6.50;;
74632;SDS011;63139;52.018;8.552;2023-03-26T08:37:26;16.27;;;6.15;;
74632;SDS011;63139;52.018;8.552;2023-03-26T08:39:54;14.43;;;5.57;;
74632;SDS011;63139;52.018;8.552;2023-03-26T08:42:37;18.98;;;6.70;;
74632;SDS011;63139;52.018;8.552;2023-03-26T08:48:45;17.48;;;6.63;;
74632;SDS011;63139;52.018;8.552;2023-03-26T08:54:46;26.77;;;7.97;;
74632;SDS011;63139;52.018;8.552;2023-03-26T08:57:54;19.40;;;6.43;;
74632;SDS011;63139;52.018;8.552;2023-03-26T09:00:53;18.27;;;6.97;;
74632;SDS011;63139;52.018;8.552;2023-03-26T09:15:56;15.07;;;6.10;;
74632;SDS011;63139;52.018;8.552;2023-03-26T09:19:00;25.25;;;8.38;;
74632;SDS011;63139;52.018;8.552;2023-03-26T09:28:20;15.52;;;6.35;;
74632;SDS011;63139;52.018;8.552;2023-03-26T09:37:02;14.32;;;5.75;;
74632;SDS011;63139;52.018;8.552;2023-03-26T09:39:44;16.75;;;6.10;;
74632;SDS011;63139;52.018;8.552;2023-03-26T09:42:21;15.80;;;6.30;;
74632;SDS011;63139;52.018;8.552;2023-03-26T09:45:02;20.50;;;6.03;;
74632;SDS011;63139;52.018;8.552;2023-03-26T09:50:47;16.92;;;6.72;;
74632;SDS011;63139;52.018;8.552;2023-03-26T09:53:35;13.43;;;5.93;;
74632;SDS011;63139;52.018;8.552;2023-03-26T09:56:30;17.35;;;6.43;;
74632;SDS011;63139;52.018;8.552;2023-03-26T09:59:09;20.17;;;7.25;;
74632;SDS011;63139;52.018;8.552;2023-03-26T10:02:03;14.27;;;6.32;;
74632;SDS011;63139;52.018;8.552;2023-03-26T10:07:48;13.05;;;6.38;;
74632;SDS011;63139;52.018;8.552;2023-03-26T10:10:25;16.42;;;7.63;;
74632;SDS011;63139;52.018;8.552;2023-03-26T10:13:02;18.00;;;7.50;;
74632;SDS011;63139;52.018;8.552;2023-03-26T10:15:45;15.07;;;7.38;;
74632;SDS011;63139;52.018;8.552;2023-03-26T10:18:26;16.92;;;6.82;;
74632;SDS011;63139;52.018;8.552;2023-03-26T10:21:08;16.92;;;6.82;;
74632;SDS011;63139;52.018;8.552;2023-03-26T10:23:47;18.20;;;7.95;;
74632;SDS011;63139;52.018;8.552;2023-03-26T10:26:45;20.30;;;8.20;;
74632;SDS011;63139;52.018;8.552;2023-03-26T10:29:40;18.77;;;8.48;;
74632;SDS011;63139;52.018;8.552;2023-03-26T10:32:28;13.45;;;7.75;;
74632;SDS011;63139;52.018;8.552;2023-03-26T10:35:10;18.73;;;8.57;;
74632;SDS011;63139;52.018;8.552;2023-03-26T10:37:50;17.58;;;8.65;;
74632;SDS011;63139;52.018;8.552;2023-03-26T10:40:29;20.42;;;9.30;;
74632;SDS011;63139;52.018;8.552;2023-03-26T10:43:04;17.17;;;9.07;;
74632;SDS011;63139;52.018;8.552;2023-03-26T10:45:56;20.63;;;9.02;;
74632;SDS011;63139;52.018;8.552;2023-03-26T10:48:34;18.13;;;7.63;;
74632;SDS011;63139;52.018;8.552;2023-03-26T10:51:20;13.48;;;6.00;;
74632;SDS011;63139;52.018;8.552;2023-03-26T10:53:59;23.45;;;7.18;;
74632;SDS011;63139;52.018;8.552;2023-03-26T10:56:37;19.80;;;7.25;;
74632;SDS011;63139;52.018;8.552;2023-03-26T10:59:10;18.58;;;7.90;;
74632;SDS011;63139;52.018;8.552;2023-03-26T11:01:40;19.75;;;8.90;;
74632;SDS011;63139;52.018;8.552;2023-03-26T11:04:18;19.40;;;8.55;;
74632;SDS011;63139;52.018;8.552;2023-03-26T11:06:58;22.17;;;8.30;;
74632;SDS011;63139;52.018;8.552;2023-03-26T11:09:38;22.25;;;8.23;;
74632;SDS011;63139;52.018;8.552;2023-03-26T11:12:15;16.33;;;7.85;;
74632;SDS011;63139;52.018;8.552;2023-03-26T11:15:00;24.75;;;8.05;;
74632;SDS011;63139;52.018;8.552;2023-03-26T11:17:41;14.30;;;6.47;;
74632;SDS011;63139;52.018;8.552;2023-03-26T11:20:19;9.95;;;4.93;;
74632;SDS011;63139;52.018;8.552;2023-03-26T11:23:05;10.43;;;3.63;;
74632;SDS011;63139;52.018;8.552;2023-03-26T11:25:54;5.88;;;2.50;;
74632;SDS011;63139;52.018;8.552;2023-03-26T11:28:38;6.18;;;2.45;;
74632;SDS011;63139;52.018;8.552;2023-03-26T11:31:42;4.15;;;2.45;;
74632;SDS011;63139;52.018;8.552;2023-03-26T11:34:19;7.38;;;3.50;;
74632;SDS011;63139;52.018;8.552;2023-03-26T11:36:53;7.95;;;3.50;;
74632;SDS011;63139;52.018;8.552;2023-03-26T11:39:26;8.40;;;3.55;;
74632;SDS011;63139;52.018;8.552;2023-03-26T11:41:58;10.85;;;4.32;;
74632;SDS011;63139;52.018;8.552;2023-03-26T11:44:45;7.75;;;3.55;;
74632;SDS011;63139;52.018;8.552;2023-03-26T11:47:20;12.05;;;4.70;;
74632;SDS011;63139;52.018;8.552;2023-03-26T11:49:52;11.05;;;4.82;;
74632;SDS011;63139;52.018;8.552;2023-03-26T11:52:25;10.45;;;4.57;;
74632;SDS011;63139;52.018;8.552;2023-03-26T11:54:55;10.70;;;4.28;;
74632;SDS011;63139;52.018;8.552;2023-03-26T11:57:24;10.27;;;5.43;;
74632;SDS011;63139;52.018;8.552;2023-03-26T11:59:57;12.38;;;4.97;;
74632;SDS011;63139;52.018;8.552;2023-03-26T12:02:38;12.55;;;5.65;;
74632;SDS011;63139;52.018;8.552;2023-03-26T12:05:15;12.15;;;5.20;;
74632;SDS011;63139;52.018;8.552;2023-03-26T12:07:49;10.73;;;5.40;;
74632;SDS011;63139;52.018;8.552;2023-03-26T12:10:22;8.07;;;4.57;;
74632;SDS011;63139;52.018;8.552;2023-03-26T12:12:57;12.65;;;4.95;;
74632;SDS011;63139;52.018;8.552;2023-03-26T12:15:28;9.30;;;4.75;;
74632;SDS011;63139;52.018;8.552;2023-03-26T12:17:57;11.80;;;5.22;;
74632;SDS011;63139;52.018;8.552;2023-03-26T12:20:44;8.20;;;4.47;;
74632;SDS011;63139;52.018;8.552;2023-03-26T12:23:33;9.82;;;4.65;;
74632;SDS011;63139;52.018;8.552;2023-03-26T12:26:27;5.65;;;3.72;;
74632;SDS011;63139;52.018;8.552;2023-03-26T12:29:09;5.78;;;3.30;;
74632;SDS011;63139;52.018;8.552;2023-03-26T12:31:48;9.73;;;3.85;;
74632;SDS011;63139;52.018;8.552;2023-03-26T12:34:27;5.43;;;3.00;;
74632;SDS011;63139;52.018;8.552;2023-03-26T12:37:01;9.90;;;4.30;;
74632;SDS011;63139;52.018;8.552;2023-03-26T12:39:34;8.75;;;3.92;;
74632;SDS011;63139;52.018;8.552;2023-03-26T12:42:26;6.13;;;4.10;;
74632;SDS011;63139;52.018;8.552;2023-03-26T12:45:19;7.47;;;3.58;;
74632;SDS011;63139;52.018;8.552;2023-03-26T12:47:49;8.00;;;3.70;;
74632;SDS011;63139;52.018;8.552;2023-03-26T12:50:34;7.72;;;4.30;;
74632;SDS011;63139;52.018;8.552;2023-03-26T12:53:17;9.60;;;3.75;;
74632;SDS011;63139;52.018;8.552;2023-03-26T12:56:04;6.80;;;3.58;;
74632;SDS011;63139;52.018;8.552;2023-03-26T12:58:52;10.60;;;4.53;;
74632;SDS011;63139;52.018;8.552;2023-03-26T13:01:36;6.13;;;3.47;;
74632;SDS011;63139;52.018;8.552;2023-03-26T13:04:20;7.57;;;4.22;;
74632;SDS011;63139;52.018;8.552;2023-03-26T13:07:33;8.05;;;3.75;;
74632;SDS011;63139;52.018;8.552;2023-03-26T13:10:32;6.93;;;3.83;;
74632;SDS011;63139;52.018;8.552;2023-03-26T13:13:10;9.82;;;4.03;;
74632;SDS011;63139;52.018;8.552;2023-03-26T13:15:49;8.40;;;3.40;;
74632;SDS011;63139;52.018;8.552;2023-03-26T13:18:25;6.45;;;3.47;;
74632;SDS011;63139;52.018;8.552;2023-03-26T13:21:01;6.63;;;2.92;;
74632;SDS011;63139;52.018;8.552;2023-03-26T13:23:41;6.82;;;3.50;;
74632;SDS011;63139;52.018;8.552;2023-03-26T13:26:21;6.28;;;3.88;;
74632;SDS011;63139;52.018;8.552;2023-03-26T13:29:01;9.60;;;4.03;;
74632;SDS011;63139;52.018;8.552;2023-03-26T13:31:39;6.70;;;4.03;;
74632;SDS011;63139;52.018;8.552;2023-03-26T13:34:13;6.25;;;3.42;;
74632;SDS011;63139;52.018;8.552;2023-03-26T13:36:50;5.47;;;3.22;;
74632;SDS011;63139;52.018;8.552;2023-03-26T13:39:31;6.18;;;2.90;;
74632;SDS011;63139;52.018;8.552;2023-03-26T13:42:09;5.70;;;2.90;;
74632;SDS011;63139;52.018;8.552;2023-03-26T13:44:52;6.28;;;3.03;;
74632;SDS011;63139;52.018;8.552;2023-03-26T13:47:33;4.05;;;2.10;;
74632;SDS011;63139;52.018;8.552;2023-03-26T13:50:06;5.57;;;2.60;;
74632;SDS011;63139;52.018;8.552;2023-03-26T13:52:42;5.35;;;2.50;;
74632;SDS011;63139;52.018;8.552;2023-03-26T13:55:17;4.93;;;2.35;;
74632;SDS011;63139;52.018;8.552;2023-03-26T13:57:50;4.32;;;1.90;;
74632;SDS011;63139;52.018;8.552;2023-03-26T14:00:26;3.55;;;1.90;;
74632;SDS011;63139;52.018;8.552;2023-03-26T14:03:07;3.28;;;1.75;;
74632;SDS011;63139;52.018;8.552;2023-03-26T14:05:43;2.08;;;1.70;;
74632;SDS011;63139;52.018;8.552;2023-03-26T14:08:15;4.00;;;1.98;;
74632;SDS011;63139;52.018;8.552;2023-03-26T14:10:49;3.33;;;1.55;;
74632;SDS011;63139;52.018;8.552;2023-03-26T14:13:23;4.43;;;2.30;;
74632;SDS011;63139;52.018;8.552;2023-03-26T14:15:57;2.38;;;1.60;;
74632;SDS011;63139;52.018;8.552;2023-03-26T14:18:34;2.47;;;1.70;;
74632;SDS011;63139;52.018;8.552;2023-03-26T14:21:13;2.72;;;1.83;;
74632;SDS011;63139;52.018;8.552;2023-03-26T14:27:05;2.78;;;1.75;;
74632;SDS011;63139;52.018;8.552;2023-03-26T14:32:56;5.03;;;2.50;;
74632;SDS011;63139;52.018;8.552;2023-03-26T14:35:41;4.50;;;2.20;;
74632;SDS011;63139;52.018;8.552;2023-03-26T14:38:29;3.78;;;2.63;;
74632;SDS011;63139;52.018;8.552;2023-03-26T14:41:12;6.18;;;3.53;;
74632;SDS011;63139;52.018;8.552;2023-03-26T14:44:16;3.97;;;2.30;;
74632;SDS011;63139;52.018;8.552;2023-03-26T14:47:17;3.13;;;2.25;;
74632;SDS011;63139;52.018;8.552;2023-03-26T14:49:53;5.43;;;2.85;;
74632;SDS011;63139;52.018;8.552;2023-03-26T14:52:47;3.75;;;2.75;;
74632;SDS011;63139;52.018;8.552;2023-03-26T14:55:20;9.90;;;4.43;;
74632;SDS011;63139;52.018;8.552;2023-03-26T14:58:11;5.55;;;2.95;;
74632;SDS011;63139;52.018;8.552;2023-03-26T15:01:14;6.70;;;3.58;;
74632;SDS011;63139;52.018;8.552;2023-03-26T15:07:13;19.88;;;5.70;;
74632;SDS011;63139;52.018;8.552;2023-03-26T15:13:14;13.05;;;4.70;;
74632;SDS011;63139;52.018;8.552;2023-03-26T15:16:06;17.20;;;4.72;;
74632;SDS011;63139;52.018;8.552;2023-03-26T15:22:27;11.10;;;4.47;;
74632;SDS011;63139;52.018;8.552;2023-03-26T15:31:42;11.90;;;3.85;;
74632;SDS011;63139;52.018;8.552;2023-03-26T15:34:29;10.73;;;3.83;;
74632;SDS011;63139;52.018;8.552;2023-03-26T15:43:22;11.30;;;3.88;;
74632;SDS011;63139;52.018;8.552;2023-03-26T15:46:07;12.70;;;3.55;;
74632;SDS011;63139;52.018;8.552;2023-03-26T15:48:55;19.05;;;4.50;;
74632;SDS011;63139;52.018;8.552;2023-03-26T15:51:41;16.20;;;4.05;;
74632;SDS011;63139;52.018;8.552;2023-03-26T15:54:21;15.55;;;3.67;;
74632;SDS011;63139;52.018;8.552;2023-03-26T15:56:56;10.98;;;3.67;;
74632;SDS011;63139;52.018;8.552;2023-03-26T15:59:36;12.40;;;3.30;;
74632;SDS011;63139;52.018;8.552;2023-03-26T16:02:12;12.45;;;3.45;;
74632;SDS011;63139;52.018;8.552;2023-03-26T16:04:50;10.25;;;3.00;;
74632;SDS011;63139;52.018;8.552;2023-03-26T16:10:18;10.98;;;3.45;;
74632;SDS011;63139;52.018;8.552;2023-03-26T16:15:53;10.35;;;2.83;;
74632;SDS011;63139;52.018;8.552;2023-03-26T16:18:31;12.07;;;3.60;;
74632;SDS011;63139;52.018;8.552;2023-03-26T16:24:16;9.48;;;2.40;;
74632;SDS011;63139;52.018;8.552;2023-03-26T16:26:51;18.33;;;3.85;;
74632;SDS011;63139;52.018;8.552;2023-03-26T16:29:28;10.68;;;2.45;;
74632;SDS011;63139;52.018;8.552;2023-03-26T16:34:46;11.15;;;2.53;;
74632;SDS011;63139;52.018;8.552;2023-03-26T16:40:27;13.05;;;3.85;;
74632;SDS011;63139;52.018;8.552;2023-03-26T16:46:01;10.55;;;2.72;;
74632;SDS011;63139;52.018;8.552;2023-03-26T16:48:37;15.95;;;2.58;;
74632;SDS011;63139;52.018;8.552;2023-03-26T16:51:14;12.48;;;2.42;;
74632;SDS011;63139;52.018;8.552;2023-03-26T16:53:53;14.10;;;2.45;;
74632;SDS011;63139;52.018;8.552;2023-03-26T16:56:32;10.68;;;2.83;;
74632;SDS011;63139;52.018;8.552;2023-03-26T16:59:21;17.17;;;2.85;;
74632;SDS011;63139;52.018;8.552;2023-03-26T17:02:06;13.77;;;2.47;;
74632;SDS011;63139;52.018;8.552;2023-03-26T17:04:47;13.60;;;2.92;;
74632;SDS011;63139;52.018;8.552;2023-03-26T17:07:22;11.68;;;2.75;;
74632;SDS011;63139;52.018;8.552;2023-03-26T17:10:01;10.52;;;2.63;;
74632;SDS011;63139;52.018;8.552;2023-03-26T17:12:41;16.58;;;2.63;;
74632;SDS011;63139;52.018;8.552;2023-03-26T17:15:19;10.27;;;2.70;;
74632;SDS011;63139;52.018;8.552;2023-03-26T17:18:13;12.43;;;2.20;;